Weather observations for the past three days for
Knoxville
Imperial (Metric)
Date Time (cdt) Wind (mph) Vis. (mi.) Weather Sky Cond. Temperature (ºF) Relative Humidity Wind Chill (°F) Heat Index (°F) Pressure Precipitation (in)
Air Dwpt 6 hour altimeter (in) sea level (mb) 1 hr 3 hr 6 hr
Max. Min.
05 09:35 SW 3 10.00 Fair CLR 82.4 75.2 79% 89 29.97 0.0
05 09:15 Calm 10.00 Fair CLR 82.4 73.4 74% 88 29.96 0.0
05 09:00 Calm 10.00 Fair CLR 80.6 73.4 79% 85 29.96 0.0
05 08:35 Calm 10.00 Fair CLR 78.8 73.4 84% 82 29.96 0.0
05 08:15 Calm 10.00 Fair CLR 77 73.4 89% 78 29.96 0.0
05 07:55 Calm 10.00 Fair CLR 77 73.4 89% 78 29.95 0.0
05 07:35 Calm 10.00 Fair CLR 75.2 71.6 89% 75 29.95 0.0
05 07:15 Calm 10.00 Fair CLR 75.2 71.6 89% 75 29.94 0.0
05 06:55 Calm 10.00 Fair CLR 73.4 71.6 94% 29.93 0.0
05 06:35 W 3 10.00 A Few Clouds FEW065 75.2 71.6 89% 75 29.93 0.0
05 06:15 NW 3 10.00 Fair CLR 75.2 71.6 89% 75 29.93 0.0
05 05:55 Calm 10.00 Fair CLR 75.2 71.6 89% 75 29.92 0.0
05 05:35 Calm 10.00 Fair CLR 77 71.6 83% 78 29.92 0.0
05 05:15 Calm 10.00 Fair CLR 77 71.6 83% 78 29.92 0.0
05 04:55 S 3 10.00 Fair CLR 77 71.6 83% 78 29.92 0.0
05 04:35 Calm 10.00 Fair CLR 77 71.6 83% 78 29.92 0.0
05 04:15 Calm 10.00 Fair CLR 77 71.6 83% 78 29.92 0.0
05 03:35 SW 5 10.00 Fair CLR 77 71.6 83% 78 29.93 0.0
05 03:15 SW 6 10.00 Fair CLR 77 73.4 89% 78 29.93 0.0
05 02:55 SW 7 10.00 Fair CLR 77 73.4 89% 78 29.93 0.0
05 02:35 S 7 10.00 Fair CLR 77 73.4 89% 78 29.93 0.0
05 02:15 SW 5 10.00 Fair CLR 77 73.4 89% 78 29.93 0.0
05 01:55 Calm 10.00 Fair CLR 77 73.4 89% 78 29.93 0.0
05 01:35 Calm 10.00 Fair CLR 77 73.4 89% 78 29.93 0.0
05 01:15 S 5 10.00 Fair CLR 78.8 73.4 84% 82 29.93 0.0
05 00:55 S 5 10.00 Fair CLR 78.8 73.4 84% 82 29.93 0.0
05 00:35 S 7 10.00 Fair CLR 78.8 73.4 84% 82 29.92 0.0
05 00:15 S 7 10.00 Fair CLR 80.6 73.4 79% 85 29.92 0.0
04 23:55 S 6 8.00 Fair CLR 78.8 73.4 84% 82 29.92 0.0
04 23:35 S 6 10.00 Fair CLR 80.6 73.4 79% 85 29.92 0.0
04 23:15 S 6 8.00 Fair CLR 80.6 75.2 84% 86 29.92 0.0
04 22:55 S 6 10.00 Fair CLR 80.6 75.2 84% 86 29.92 0.0
04 22:35 S 5 10.00 Fair CLR 82.4 75.2 79% 89 29.92 0.0
04 22:15 S 6 9.00 Fair CLR 80.6 75.2 84% 86 29.91 0.0
04 21:55 S 6 10.00 Fair CLR 82.4 75.2 79% 89 29.92 0.0
04 21:35 SE 5 10.00 Fair CLR 84.2 75.2 74% 92 29.92 0.0
04 21:15 SE 3 10.00 Fair CLR 84.2 75.2 74% 92 29.91 0.0
04 20:55 SE 5 10.00 Fair CLR 84.2 75.2 74% 92 29.91 0.0
04 20:35 SE 5 10.00 Fair CLR 86 73.4 66% 93 29.91 0.0
04 20:15 SE 3 10.00 Fair CLR 86 73.4 66% 93 29.9 0.0
04 19:55 S 3 10.00 Fair CLR 87.8 73.4 62% 96 29.89 0.0
04 19:35 S 5 10.00 A Few Clouds FEW110 87.8 73.4 62% 96 29.89 0.0
04 19:15 S 5 10.00 Partly Cloudy SCT110 87.8 75.2 66% 98 29.89 0.0
04 18:55 SW 5 10.00 A Few Clouds FEW110 89.6 75.2 63% 100 29.89 0.0
04 18:35 SW 6 10.00 Fair CLR 89.6 75.2 63% 100 29.89 0.0
04 18:15 S 6 10.00 Fair CLR 91.4 75.2 59% 103 29.89 0.0
04 17:55 S 6 10.00 Fair CLR 89.6 73.4 59% 98 29.88 0.0
04 17:35 S 8 G 15 10.00 Fair CLR 91.4 73.4 56% 100 29.88 0.0
04 17:15 S 8 10.00 Fair CLR 93.2 73.4 53% 103 29.88 0.0
04 16:55 S 13 10.00 Fair CLR 93.2 73.4 53% 103 29.88 0.0
04 16:35 S 9 10.00 Fair CLR 93.2 73.4 53% 103 29.88 0.0
04 16:15 SW 10 10.00 Fair CLR 93.2 73.4 53% 103 29.89 0.0
04 15:55 SW 12 10.00 Fair CLR 93.2 73.4 53% 103 29.89 0.0
04 15:35 SW 13 G 18 10.00 Fair CLR 91.4 71.6 52% 99 29.89 0.0
04 15:15 SW 13 10.00 Fair CLR 93.2 73.4 53% 103 29.89 0.0
04 14:55 SW 15 G 21 10.00 Fair CLR 93.2 71.6 50% 101 29.89 0.0
04 14:10 S 14 10.00 Fair CLR 91.4 73.4 56% 100 29.9 0.0
04 13:55 S 12 G 22 10.00 Fair CLR 91.4 71.6 52% 99 29.91 0.0
04 13:35 S 15 10.00 Fair CLR 91.4 71.6 52% 99 29.91 0.0
04 13:15 S 13 10.00 Fair CLR 91.4 73.4 56% 100 29.91 0.0
04 12:55 S 14 10.00 Fair CLR 89.6 73.4 59% 98 29.92 0.0
04 12:35 S 13 10.00 Fair CLR 89.6 73.4 59% 98 29.93 0.0
04 12:15 SW 13 10.00 Fair CLR 89.6 71.6 55% 96 29.93 0.0
04 11:35 SW 17 10.00 Fair CLR 89.6 71.6 55% 96 29.93 0.0
04 11:15 SW 15 10.00 Fair CLR 89.6 71.6 55% 96 29.93 0.0
04 10:55 SW 13 10.00 Fair CLR 87.8 71.6 59% 94 29.93 0.0
04 10:35 SW 14 10.00 Fair CLR 86 71.6 62% 92 29.93 0.0
04 10:15 SW 10 G 17 10.00 Fair CLR 87.8 71.6 59% 94 29.93 0.0
04 09:55 SW 9 10.00 Fair CLR 86 71.6 62% 92 29.93 0.0
04 09:35 SW 9 10.00 Fair CLR 84.2 71.6 66% 90 29.92 0.0
04 09:15 SW 8 10.00 Fair CLR 82.4 71.6 70% 87 29.92 0.0
04 08:55 SW 8 G 14 10.00 Fair CLR 80.6 71.6 74% 85 29.92 0.0
04 08:35 S 8 10.00 Fair CLR 78.8 69.8 74% 81 29.92 0.0
04 08:15 S 6 10.00 Fair CLR 77 69.8 79% 79 29.92 0.0
04 07:55 S 7 10.00 Fair CLR 75.2 69.8 83% 75 29.92 0.0
04 07:35 S 6 10.00 Fair CLR 75.2 69.8 83% 75 29.91 0.0
04 07:15 S 5 10.00 A Few Clouds FEW150 73.4 69.8 89% 29.91 0.0
04 06:55 S 6 10.00 A Few Clouds FEW150 73.4 69.8 89% 29.9 0.0
04 06:35 S 5 10.00 Fair CLR 75.2 68 78% 76 29.9 0.0
04 06:15 S 5 10.00 Fair CLR 75.2 69.8 83% 75 29.9 0.0
04 05:55 S 5 10.00 Fair CLR 75.2 68 78% 76 29.89 0.0
04 05:35 S 5 10.00 Fair CLR 77 69.8 79% 79 29.89 0.0
04 04:50 S 9 10.00 Fair CLR 77 69.8 79% 79 29.87 0.0
04 04:35 S 7 10.00 Fair CLR 77 69.8 79% 79 29.87 0.0
04 04:15 S 7 10.00 Fair CLR 77 69.8 79% 79 29.87 0.0
04 03:55 S 7 10.00 Fair CLR 77 69.8 79% 79 29.86 0.0
04 03:40 S 6 10.00 Fair CLR 77 69.8 79% 79 29.86 0.0
04 03:15 S 7 10.00 Fair CLR 77 69.8 79% 79 29.86 0.0
04 02:55 S 7 10.00 Fair CLR 77 69.8 79% 79 29.86 0.0
04 02:15 S 6 10.00 Fair CLR 77 69.8 79% 79 29.87 0.0
04 01:55 S 6 10.00 Fair CLR 78.8 69.8 74% 81 29.88 0.0
04 01:35 S 6 10.00 Fair CLR 77 69.8 79% 79 29.88 0.0
04 01:15 S 6 10.00 Fair CLR 78.8 69.8 74% 81 29.88 0.0
04 00:55 S 5 10.00 Fair CLR 78.8 69.8 74% 81 29.89 0.0
04 00:35 S 5 10.00 Fair CLR 78.8 69.8 74% 81 29.88 0.0
04 00:15 S 5 10.00 Fair CLR 78.8 69.8 74% 81 29.88 0.0
03 23:55 S 5 10.00 Fair CLR 78.8 69.8 74% 81 29.88 0.0
03 23:35 S 5 10.00 Fair CLR 80.6 69.8 70% 84 29.88 0.0
03 23:15 S 5 10.00 Fair CLR 80.6 69.8 70% 84 29.88 0.0
03 22:55 S 5 10.00 Fair CLR 80.6 69.8 70% 84 29.88 0.0
03 22:35 S 5 10.00 Fair CLR 80.6 69.8 70% 84 29.88 0.0
03 22:15 S 5 10.00 Fair CLR 80.6 69.8 70% 84 29.88 0.0
03 21:55 S 6 10.00 Fair CLR 82.4 69.8 66% 86 29.87 0.0
03 21:35 S 6 10.00 Fair CLR 82.4 69.8 66% 86 29.87 0.0
03 21:15 S 7 10.00 Fair CLR 82.4 71.6 70% 87 29.87 0.0
03 20:55 S 8 10.00 Fair CLR 84.2 71.6 66% 90 29.86 0.0
03 20:35 S 9 10.00 Fair CLR 84.2 71.6 66% 90 29.86 0.0
03 20:15 S 8 10.00 Partly Cloudy SCT160 86 71.6 62% 92 29.85 0.0
03 19:55 S 8 10.00 Fair CLR 86 71.6 62% 92 29.84 0.0
03 19:35 S 7 10.00 A Few Clouds FEW160 86 71.6 62% 92 29.84 0.0
03 19:15 S 8 10.00 Fair CLR 87.8 71.6 59% 94 29.84 0.0
03 18:55 S 7 10.00 Fair CLR 89.6 71.6 55% 96 29.84 0.0
03 18:35 S 9 10.00 Fair CLR 89.6 71.6 55% 96 29.84 0.0
03 18:15 S 10 10.00 Fair CLR 91.4 71.6 52% 99 29.84 0.0
03 17:55 S 12 10.00 Fair CLR 91.4 73.4 56% 100 29.84 0.0
03 17:35 S 13 10.00 Fair CLR 93.2 71.6 50% 101 29.84 0.0
03 17:15 S 10 10.00 Fair CLR 93.2 71.6 50% 101 29.85 0.0
03 16:55 S 10 10.00 Fair CLR 93.2 71.6 50% 101 29.86 0.0
03 16:35 S 12 10.00 Fair CLR 93.2 71.6 50% 101 29.86 0.0
03 15:55 S 12 10.00 Fair CLR 93.2 73.4 53% 103 29.87 0.0
03 15:35 S 10 10.00 Fair CLR 93.2 71.6 50% 101 29.88 0.0
03 15:15 SW 7 10.00 Fair CLR 93.2 71.6 50% 101 29.89 0.0
03 14:55 SW 5 G 12 10.00 Fair CLR 93.2 71.6 50% 101 29.89 0.0
03 14:35 SW 14 G 20 10.00 Fair CLR 93.2 71.6 50% 101 29.89 0.0
03 14:20 S 7 G 15 10.00 Fair CLR 93.2 71.6 50% 101 29.9 0.0
03 13:55 SW 9 G 16 10.00 Fair CLR 93.2 71.6 50% 101 29.9 0.0
03 13:35 SW 9 10.00 Fair CLR 91.4 71.6 52% 99 29.9 0.0
03 13:15 SW 12 10.00 Fair CLR 91.4 71.6 52% 99 29.91 0.0
03 12:55 SW 9 G 16 10.00 Fair CLR 91.4 71.6 52% 99 29.91 0.0
03 12:35 SW 10 10.00 Fair CLR 91.4 71.6 52% 99 29.91 0.0
03 12:15 S 8 10.00 Fair CLR 91.4 71.6 52% 99 29.91 0.0
03 11:55 SW 8 10.00 Fair CLR 89.6 69.8 52% 95 29.91 0.0
03 11:35 W 7 10.00 Fair CLR 89.6 71.6 55% 96 29.92 0.0
03 11:15 W 9 G 15 10.00 Fair CLR 89.6 71.6 55% 96 29.92 0.0
03 10:55 SW 7 10.00 Fair CLR 87.8 71.6 59% 94 29.93 0.0
03 10:35 S 7 10.00 Fair CLR 87.8 71.6 59% 94 29.92 0.0
03 10:15 SW 7 10.00 Fair CLR 86 71.6 62% 92 29.92 0.0
03 09:55 SW 9 10.00 Fair CLR 84.2 69.8 62% 88 29.92 0.0
03 09:35 SW 7 10.00 Fair CLR 84.2 69.8 62% 88 29.92 0.0
03 09:15 SW 8 9.00 Fair CLR 82.4 69.8 66% 86 29.92 0.0
03 08:35 W 6 10.00 Fair CLR 80.6 69.8 70% 84 29.93 0.0
03 08:15 S 8 10.00 Fair CLR 78.8 69.8 74% 81 29.92 0.0
03 07:55 S 6 G 13 10.00 Fair CLR 77 69.8 79% 79 29.91 0.0
03 07:35 S 8 10.00 Fair CLR 75.2 69.8 83% 75 29.91 0.0
03 07:15 S 7 10.00 Fair CLR 75.2 69.8 83% 75 29.9 0.0
03 06:55 S 8 10.00 Fair CLR 75.2 69.8 83% 75 29.9 0.0
03 06:35 S 9 10.00 Fair CLR 75.2 69.8 83% 75 29.89 0.0
03 06:15 S 9 10.00 Fair CLR 77 69.8 79% 79 29.89 0.0
03 05:55 S 9 10.00 Fair CLR 77 69.8 79% 79 29.88 0.0
03 05:35 S 7 10.00 Fair CLR 77 69.8 79% 79 29.88 0.0
03 05:15 S 7 10.00 Fair CLR 77 69.8 79% 79 29.88 0.0
03 04:55 S 8 10.00 Fair CLR 78.8 69.8 74% 81 29.87 0.0
03 04:35 S 8 10.00 Fair CLR 78.8 69.8 74% 81 29.88 0.0
03 04:20 S 9 10.00 Fair CLR 78.8 69.8 74% 81 29.87 0.0
03 03:55 S 9 10.00 Fair CLR 78.8 69.8 74% 81 29.88 0.0
03 03:35 S 9 10.00 Fair CLR 78.8 69.8 74% 81 29.88 0.0
03 03:15 S 8 10.00 Fair CLR 78.8 69.8 74% 81 29.87 0.0
03 02:55 S 8 10.00 Fair CLR 78.8 69.8 74% 81 29.88 0.0
03 02:35 S 8 10.00 Fair CLR 78.8 69.8 74% 81 29.88 0.0
03 02:15 S 9 10.00 Fair CLR 78.8 69.8 74% 81 29.88 0.0
03 01:55 S 7 10.00 Fair CLR 78.8 69.8 74% 81 29.88 0.0
03 01:35 S 7 10.00 Fair CLR 78.8 69.8 74% 81 29.89 0.0
03 01:15 S 6 10.00 Fair CLR 78.8 69.8 74% 81 29.89 0.0
03 00:55 S 7 10.00 Fair CLR 78.8 69.8 74% 81 29.89 0.0
03 00:35 S 6 10.00 Fair CLR 78.8 69.8 74% 81 29.89 0.0
03 00:15 S 7 10.00 Fair CLR 78.8 69.8 74% 81 29.89 0.0
02 23:55 S 7 10.00 Fair CLR 80.6 69.8 70% 84 29.89 0.0
02 23:35 S 7 10.00 Fair CLR 80.6 69.8 70% 84 29.89 0.0
02 23:15 S 6 10.00 Fair CLR 80.6 71.6 74% 85 29.89 0.0
02 22:55 S 6 10.00 Fair CLR 80.6 71.6 74% 85 29.89 0.0
02 22:35 S 6 10.00 Fair CLR 80.6 71.6 74% 85 29.89 0.0
02 21:30 S 6 10.00 Fair CLR 82.4 73.4 74% 88 29.89 0.0
02 21:15 S 6 10.00 Fair CLR 82.4 71.6 70% 87 29.89 0.0
02 20:55 S 6 10.00 Fair CLR 84.2 71.6 66% 90 29.88 0.0
02 20:35 S 6 10.00 Fair CLR 84.2 71.6 66% 90 29.87 0.0
02 20:15 S 7 10.00 Fair CLR 84.2 71.6 66% 90 29.87 0.0
02 20:00 S 8 10.00 Fair CLR 86 71.6 62% 92 29.87 0.0
02 19:35 S 8 10.00 Fair CLR 86 73.4 66% 93 29.87 0.0
02 19:15 S 7 10.00 Fair CLR 87.8 73.4 62% 96 29.87 0.0
02 18:55 S 9 10.00 Fair CLR 89.6 73.4 59% 98 29.87 0.0
02 18:35 S 9 10.00 Fair CLR 89.6 73.4 59% 98 29.87 0.0
02 18:15 S 9 10.00 Fair CLR 91.4 73.4 56% 100 29.87 0.0
02 17:55 S 8 10.00 Fair CLR 93.2 73.4 53% 103 29.87 0.0
02 17:35 S 12 10.00 Fair CLR 93.2 71.6 50% 101 29.87 0.0
02 17:15 S 7 10.00 Fair CLR 93.2 73.4 53% 103 29.88 0.0
02 16:55 S 10 G 17 10.00 Fair CLR 95 71.6 47% 103 29.88 0.0
02 16:35 S 10 10.00 Fair CLR 93.2 71.6 50% 101 29.88 0.0
02 16:15 S 9 G 16 7.00 Fair CLR 93.2 73.4 53% 103 29.88 0.0
02 15:55 SW 10 G 17 9.00 Fair CLR 93.2 71.6 50% 101 29.89 0.0
02 15:35 S 9 10.00 Fair CLR 93.2 71.6 50% 101 29.89 0.0
02 15:15 SW 12 10.00 Fair CLR 93.2 71.6 50% 101 29.9 0.0
02 14:55 S 12 10.00 Fair CLR 93.2 71.6 50% 101 29.9 0.0
02 14:35 SW 10 G 17 10.00 Fair CLR 93.2 71.6 50% 101 29.91 0.0
02 14:15 SW 12 G 18 10.00 Fair CLR 93.2 71.6 50% 101 29.91 0.0
02 13:55 S 15 10.00 Fair CLR 91.4 71.6 52% 99 29.92 0.0
02 13:35 SW 14 G 21 10.00 Fair CLR 91.4 71.6 52% 99 29.93 0.0
02 13:15 SW 12 10.00 Fair CLR 91.4 71.6 52% 99 29.93 0.0
02 12:55 SW 10 10.00 Fair CLR 91.4 71.6 52% 99 29.93 0.0
02 12:35 SW 10 10.00 Fair CLR 89.6 69.8 52% 95 29.94 0.0
02 12:15 S 9 10.00 Fair CLR 89.6 69.8 52% 95 29.95 0.0
02 11:55 S 9 G 16 10.00 Fair CLR 87.8 69.8 55% 93 29.95 0.0
02 11:35 S 9 10.00 Fair CLR 87.8 69.8 55% 93 29.96 0.0
02 11:15 S 8 10.00 Fair CLR 87.8 69.8 55% 93 29.96 0.0
02 10:55 S 7 10.00 Fair CLR 86 68 55% 89 29.96 0.0
02 10:35 S 7 10.00 Fair CLR 86 69.8 59% 91 29.96 0.0
02 10:15 S 8 10.00 Fair CLR 84.2 69.8 62% 88 29.95 0.0
02 09:55 S 9 10.00 Fair CLR 82.4 69.8 66% 86 29.95 0.0
Date Time (cdt) Wind (mph) Vis. (mi.) Weather Sky Cond. Air Dwpt Max. Min. Relative Humidity Wind Chill (°F) Heat Index (°F) altimeter (in) sea level (mb) 1 hr 3 hr 6 hr
6 hour
Temperature (ºF) Pressure Precipitation (in)